• Join FlightAware (Why Join?)
  • Login
  • US Flag 
02:21AM EDT


 

Airport Tracker/Info


-or-


 

Live Flight TrackerFlight Track Log ✈ SWA2136 ✈ 15-May-2012 ✈ KDEN - KBDL

Flight Track Log - Related Links

Times and Time Zones

All times are in EDT time to prevent confusion due to time zone crossing. See the SWA2136 flight status page for this flight to view local times or setup timezone preferences in your user account.

Time Position Orientation Groundspeed Altitude Reporting Facility
EDT Latitude Longitude Course Direction KTS MPH feet Rate Location/Type
06:39PM 39.8833 -104.6167 90° East 177 204 6,200  Level Denver TRACON
06:40PM 39.8833 -104.5500 90° East 216 249 7,700 1,800 Climbing Denver TRACON
06:41PM 39.8833 -104.4500 90° East 280 322 9,800 2,280 Climbing Denver TRACON
06:42PM 39.8833 -104.3333 91° East 320 368 12,300 2,580 Climbing Denver TRACON
06:43PM 39.8819 -104.2056 90° East 333 383 15,300 2,640 Climbing Denver Center
06:44PM 39.8814 -104.0756 89° East 339 390 17,900 2,580 Climbing Denver Center
06:45PM 39.8828 -103.9431 88° East 355 409 20,500 1,920 Climbing Denver Center
06:46PM 39.8858 -103.8022 87° East 375 432 21,800 1,740 Climbing Denver Center
06:47PM 39.8928 -103.6475 85° East 406 467 24,000 1,980 Climbing Denver Center
06:48PM 39.9033 -103.4903 85° East 426 490 25,900 1,800 Climbing Denver Center
06:49PM 39.9139 -103.3353 85° East 431 496 27,700 1,560 Climbing Denver Center
06:50PM 39.9242 -103.1886 85° East 442 509 29,100 1,440 Climbing Denver Center
06:51PM 39.9361 -103.0200 85° East 454 522 30,600 1,680 Climbing Denver Center
06:52PM 39.9478 -102.8569 89° East 460 529 32,500 1,620 Climbing Denver Center
06:53PM 39.9506 -102.6861 85° East 460 529 33,900 1,320 Climbing Denver Center
06:54PM 39.9617 -102.5203 85° East 466 536 35,200 1,260 Climbing Denver Center
06:55PM 39.9742 -102.3406 80° East 460 529 36,500 900 Climbing Denver Center
06:56PM 39.9956 -102.1819 79° East 460 529 37,000 240 Climbing Denver Center
06:57PM 40.0169 -102.0342 80° East 454 522 37,000  Level Denver Center
06:58PM 40.0414 -101.8589 80° East 448 516 37,000  Level Denver Center
06:59PM 40.0619 -101.7000 80° East 448 516 37,000  Level Denver Center
07:00PM 40.0844 -101.5383 80° East 448 516 37,000  Level Denver Center
07:01PM 40.1050 -101.3903 81° East 448 516 37,000  Level Denver Center
07:02PM 40.1264 -101.2175 80° East 448 516 37,000  Level Denver Center
07:03PM 40.1483 -101.0581 81° East 448 516 37,000  Level Denver Center
07:04PM 40.1661 -100.9097 80° East 448 516 37,000  Level Denver Center
07:05PM 40.1875 -100.7475 81° East 448 516 37,000  Level Denver Center
07:06PM 40.2097 -100.5717 74° East 453 521 37,000  Level Denver Center
07:07PM 40.2433 -100.4133 75° East 448 516 37,000  Level Denver Center
07:08PM 40.2714 -100.2719 75° East 448 516 37,000  Level Denver Center
07:09PM 40.3056 -100.1000 76° East 438 504 37,000  Level Denver Center
07:11PM 40.3575 -99.8219 75° East 478 550 37,000  Level Minneapolis Center
07:12PM 40.3894 -99.6647 75° East 459 528 37,000  Level Minneapolis Center
07:13PM 40.4214 -99.5069 76° East 448 516 37,000  Level Minneapolis Center
07:14PM 40.4508 -99.3492 75° East 448 516 37,000  Level Minneapolis Center
07:15PM 40.4822 -99.1911 75° East 448 516 37,000  Level Minneapolis Center
07:16PM 40.5133 -99.0358 76° East 448 516 37,000  Level Minneapolis Center
07:17PM 40.5472 -98.8561 76° East 454 522 37,000  Level Minneapolis Center
07:18PM 40.5758 -98.7003 77° East 449 517 37,000  Level Minneapolis Center
07:19PM 40.6039 -98.5442 76° East 449 517 37,000  Level Minneapolis Center
07:20PM 40.6344 -98.3828 75° East 449 517 37,000  Level Minneapolis Center
07:21PM 40.6664 -98.2269 77° East 449 517 37,000  Level Minneapolis Center
07:22PM 40.6939 -98.0675 76° East 449 517 37,000  Level Minneapolis Center
07:23PM 40.7236 -97.9083 76° East 449 517 37,000  Level Minneapolis Center
07:24PM 40.7531 -97.7464 77° East 449 517 37,000  Level Minneapolis Center
07:25PM 40.7800 -97.5867 77° East 449 517 37,000  Level Minneapolis Center
07:26PM 40.8092 -97.4217 78° East 449 517 37,000  Level Minneapolis Center
07:27PM 40.8333 -97.2669 77° East 444 511 37,000  Level Minneapolis Center
07:28PM 40.8617 -97.1069 78° East 444 511 37,000  Level Minneapolis Center
07:29PM 40.8878 -96.9467 78° East 444 511 37,000  Level Minneapolis Center
07:30PM 40.9136 -96.7892 79° East 444 511 37,000  Level Minneapolis Center
07:31PM 40.9369 -96.6314 79° East 444 511 37,000  Level Minneapolis Center
07:32PM 40.9603 -96.4706 80° East 444 511 37,000  Level Minneapolis Center
07:33PM 40.9814 -96.3122 80° East 444 511 37,000  Level Minneapolis Center
07:34PM 41.0022 -96.1486 80° East 444 511 37,000  Level Minneapolis Center
07:35PM 41.0247 -95.9847 80° East 444 511 37,000  Level Minneapolis Center
07:36PM 41.0472 -95.8208 81° East 444 511 37,000  Level Minneapolis Center
07:37PM 41.0672 -95.6594 80° East 444 511 37,000  Level Minneapolis Center
07:38PM 41.0869 -95.5089 80° East 452 520 37,000  Level Minneapolis Center
07:39PM 41.1086 -95.3472 80° East 452 520 37,000  Level Minneapolis Center
07:40PM 41.1300 -95.1856 81° East 446 513 37,000  Level Minneapolis Center
07:41PM 41.1492 -95.0239 81° East 446 513 37,000  Level Minneapolis Center
07:42PM 41.1681 -94.8592 82° East 446 513 37,000  Level Minneapolis Center
07:43PM 41.1844 -94.6969 82° East 446 513 37,000  Level Minneapolis Center
07:44PM 41.2031 -94.5294 82° East 446 513 37,000  Level Minneapolis Center
07:45PM 41.2211 -94.3644 82° East 446 513 37,000  Level Minneapolis Center
07:46PM 41.2392 -94.1994 82° East 446 513 37,000  Level Minneapolis Center
07:48PM 41.2794 -93.8156 83° East 448 516 37,000  Level Chicago Center
07:49PM 41.2939 -93.6617 83° East 453 521 37,000  Level Chicago Center
07:50PM 41.3106 -93.4914 83° East 460 529 37,000  Level Chicago Center
07:51PM 41.3267 -93.3264 83° East 460 529 37,000  Level Chicago Center
07:52PM 41.3428 -93.1586 84° East 460 529 37,000  Level Chicago Center
07:53PM 41.3569 -92.9825 83° East 465 535 37,000  Level Chicago Center
07:54PM 41.3725 -92.8172 83° East 460 529 37,000  Level Chicago Center
07:55PM 41.3881 -92.6464 82° East 460 529 37,000  Level Chicago Center
07:56PM 41.4053 -92.4783 79° East 460 529 37,000  Level Chicago Center
07:57PM 41.4311 -92.2914 77° East 465 535 37,000  Level Chicago Center
07:58PM 41.4581 -92.1317 78° East 460 529 37,000  Level Chicago Center
07:59PM 41.4847 -91.9639 76° East 455 524 37,000  Level Chicago Center
08:00PM 41.5156 -91.8014 75° East 448 516 37,000  Level Chicago Center
08:01PM 41.5481 -91.6417 77° East 448 516 37,000  Level Chicago Center
08:02PM 41.5761 -91.4789 82° East 448 516 37,000  Level Chicago Center
08:03PM 41.5939 -91.3128 82° East 448 516 37,000  Level Chicago Center
08:04PM 41.6111 -91.1439 82° East 453 521 37,000  Level Chicago Center
08:05PM 41.6283 -90.9750 83° East 453 521 37,000  Level Chicago Center
08:06PM 41.6428 -90.8169 82° East 467 537 37,000 120 Level Chicago Center
08:07PM 41.6594 -90.6478 82° East 467 537 37,300 900 Climbing Chicago Center
08:08PM 41.6781 -90.4647 83° East 462 532 38,800 840 Climbing Chicago Center
08:09PM 41.6942 -90.2953 82° East 462 532 39,000 60 Climbing Chicago Center
08:10PM 41.7122 -90.1231 88° East 462 532 39,000  Level Chicago Center
08:11PM 41.7172 -89.9508 93° East 462 532 39,000  Level Chicago Center
08:12PM 41.7097 -89.7811 94° East 456 525 39,000  Level Chicago Center
08:13PM 41.7000 -89.6058 95° East 461 531 39,000  Level Chicago Center
08:14PM 41.6897 -89.4389 93° East 456 525 39,000  Level Chicago Center
08:15PM 41.6833 -89.2636 92° East 462 532 39,000  Level Chicago Center
08:16PM 41.6789 -89.0942 91° East 462 532 39,000  Level Chicago Center
08:17PM 41.6764 -88.9161 92° East 462 532 39,000  Level Chicago Center
08:18PM 41.6714 -88.7383 91° East 462 532 39,000  Level Chicago Center
08:19PM 41.6683 -88.5606 92° East 467 537 39,000  Level Chicago Center
08:20PM 41.6647 -88.3856 90° East 467 537 39,000  Level Chicago Center
08:21PM 41.6653 -88.2075 83° East 472 543 39,000  Level Chicago Center
08:22PM 41.6858 -87.9931 83° East 477 549 39,000  Level Chicago Center
08:23PM 41.7022 -87.8147 83° East 482 555 39,000  Level Chicago Center
08:24PM 41.7186 -87.6364 82° East 482 555 39,000  Level Chicago Center
08:25PM 41.7367 -87.4578 83° East 482 555 39,000  Level Chicago Center
08:26PM 41.7558 -87.2428 83° East 482 555 39,000  Level Chicago Center
08:27PM 41.7711 -87.0614 84° East 482 555 39,000  Level Chicago Center
08:28PM 41.7861 -86.8825 83° East 482 555 39,000  Level Chicago Center
08:29PM 41.8028 -86.6981 83° East 482 555 39,000  Level Chicago Center
08:30PM 41.8178 -86.5331 83° East 487 560 39,000  Level Chicago Center
08:31PM 41.8339 -86.3511 84° East 482 555 39,000  Level Chicago Center
08:32PM 41.8494 -86.1553 85° East 482 555 39,000  Level Chicago Center
08:33PM 41.8611 -85.9789 83° East 482 555 39,000  Level Chicago Center
08:34PM 41.8767 -85.8025 84° East 482 555 39,000  Level Chicago Center
08:36PM 41.9053 -85.4331 85° East 478 550 39,000  Level Cleveland Center
08:37PM 41.9161 -85.2719 85° East 478 550 39,000  Level Cleveland Center
08:38PM 41.9275 -85.0967 85° East 478 550 39,000  Level Cleveland Center
08:39PM 41.9386 -84.9161 85° East 478 550 39,000  Level Cleveland Center
08:41PM 41.9492 -84.7408 86° East 469 540 39,000  Level Cleveland Center
08:42PM 41.9614 -84.5097 84° East 474 545 39,000  Level Cleveland Center
08:43PM 41.9758 -84.3317 86° East 474 545 39,000  Level Cleveland Center
08:44PM 41.9856 -84.1592 84° East 469 540 39,000  Level Cleveland Center
08:45PM 41.9994 -83.9781 85° East 480 552 39,000  Level Cleveland Center
08:46PM 42.0106 -83.8028 64° Northeast 474 545 39,000  Level Cleveland Center
08:47PM 42.0672 -83.6433 60° Northeast 474 545 39,000  Level Cleveland Center
08:48PM 42.1339 -83.4869 60° Northeast 474 545 39,000  Level Cleveland Center
08:49PM 42.2022 -83.3275 61° Northeast 480 552 39,000  Level Cleveland Center
08:50PM 42.2664 -83.1703 63° Northeast 474 545 39,000  Level Cleveland Center
08:51PM 42.3261 -83.0125 85° East 474 545 39,000  Level Cleveland Center
08:52PM 42.3381 -82.8333 85° East 469 540 39,000  Level Cleveland Center
08:53PM 42.3497 -82.6539 86° East 469 540 39,000  Level Cleveland Center
08:54PM 42.3589 -82.4939 85° East 469 540 39,000  Level Cleveland Center
08:55PM 42.3700 -82.3172 84° East 482 555 39,000  Level Cleveland Center
08:56PM 42.3831 -82.1375 86° East 477 549 39,000  Level Cleveland Center
08:57PM 42.3914 -81.9636 85° East 477 549 39,000  Level Cleveland Center
08:58PM 42.4019 -81.7839 86° East 477 549 39,000  Level Cleveland Center
08:59PM 42.4119 -81.5900 87° East 477 549 39,000  Level Cleveland Center
09:00PM 42.4197 -81.4072 86° East 477 549 39,000  Level Cleveland Center
09:01PM 42.4292 -81.2300 86° East 477 549 39,000  Level Cleveland Center
09:02PM 42.4383 -81.0531 87° East 482 555 39,000  Level Cleveland Center
09:03PM 42.4453 -80.8675 87° East 480 552 39,000  Level Cleveland Center
09:04PM 42.4519 -80.6900 86° East 474 545 39,000  Level Cleveland Center
09:05PM 42.4603 -80.5100 87° East 474 545 39,000  Level Cleveland Center
09:06PM 42.4661 -80.3525 87° East 481 554 39,000  Level Cleveland Center
09:07PM 42.4739 -80.1158 86° East 476 548 39,000  Level Cleveland Center
09:08PM 42.4833 -79.9328 88° East 476 548 39,000  Level Cleveland Center
09:09PM 42.4886 -79.7553 87° East 476 548 39,000  Level Cleveland Center
09:10PM 42.4953 -79.5722 88° East 476 548 39,000  Level Cleveland Center
09:11PM 42.5003 -79.4117 88° East 476 548 39,000  Level Cleveland Center
09:12PM 42.5044 -79.2314 88° East 482 555 39,000 -240 Level Cleveland Center
09:13PM 42.5103 -79.0311 87° East 477 549 38,600 -720 Descending Cleveland Center
09:14PM 42.5161 -78.8536 88° East 477 549 37,600 -960 Descending Cleveland Center
09:15PM 42.5197 -78.6900 88° East 477 549 36,700 -960 Descending Cleveland Center
09:16PM 42.5250 -78.5125 88° East 477 549 35,800 -900 Descending Cleveland Center
09:17PM 42.5300 -78.3292 89° East 478 550 35,000 -420 Descending Cleveland Center
09:18PM 42.5325 -78.1458 88° East 483 556 35,000  Level Cleveland Center
09:19PM 42.5367 -77.9597 89° East 488 562 35,000  Level Cleveland Center
09:20PM 42.5403 -77.7622 92° East 488 562 35,000  Level Cleveland Center
09:21PM 42.5356 -77.5764 92° East 481 554 35,000  Level Cleveland Center
09:23PM 42.5267 -77.1797 90° East 504 580 35,000  Level Boston Center
09:24PM 42.5258 -76.9964 93° East 498 573 35,000  Level Boston Center
09:25PM 42.5175 -76.7844 91° East 498 573 35,000  Level Boston Center
09:26PM 42.5139 -76.6008 93° East 498 573 35,000  Level Boston Center
09:27PM 42.5078 -76.4203 91° East 493 567 35,000  Level Boston Center
09:28PM 42.5067 -76.2681 95° East 493 567 35,000  Level Boston Center
09:29PM 42.4944 -76.0700 93° East 493 567 35,000 -420 Level Boston Center
09:30PM 42.4878 -75.8839 92° East 493 567 34,200 -900 Descending Boston Center
09:31PM 42.4828 -75.6975 93° East 493 567 33,300 -600 Descending Boston Center
09:32PM 42.4756 -75.5114 93° East 493 567 33,000 -1,020 Descending Boston Center
09:33PM 42.4681 -75.3253 91° East 493 567 31,300 -2,040 Descending Boston Center
09:34PM 42.4661 -75.1478 87° East 488 562 29,000 -2,280 Descending Boston Center
09:35PM 42.4722 -74.9706 89° East 474 545 26,800 -2,220 Descending Boston Center
09:36PM 42.4739 -74.7992 88° East 467 537 24,600 -1,920 Descending Boston Center
09:37PM 42.4772 -74.6358 89° East 446 513 23,000 -1,260 Descending Boston Center
09:38PM 42.4800 -74.4811 89° East 427 491 22,100 -1,020 Descending Boston Center
09:39PM 42.4828 -74.3150 93° East 414 476 21,000 -1,080 Descending Boston Center
09:40PM 42.4769 -74.1656 104° East 402 463 20,000 -1,080 Descending Boston Center
09:41PM 42.4500 -74.0186 104° East 397 457 18,900 -1,020 Descending Boston Center
09:42PM 42.4247 -73.8800 105° East 389 448 18,000 -1,080 Descending Boston Center
09:43PM 42.3969 -73.7444 105° East 381 438 16,800 -1,380 Descending Boston Center
09:44PM 42.3714 -73.6119 106° East 376 433 15,300 -1,680 Descending Boston Center
09:45PM 42.3475 -73.4992 106° East 368 423 13,700 -1,380 Descending Boston Center
09:46PM 42.3114 -73.3244 104° East 347 399 12,200 -1,080 Descending Boston Center
09:47PM 42.2956 -73.2400 110° East 355 409 11,400 -1,080 Descending Boston Center
09:48PM 42.2528 -73.0853 107° East 330 380 10,100 -960 Descending Boston Center
09:49PM 42.2303 -72.9839 108° East 301 346 9,400 -960 Descending Boston Center
09:50PM 42.2058 -72.8831 109° East 295 339 8,300 -1,320 Descending Boston Center
09:51PM 42.1747 -72.7622 108° East 290 334 6,600 -1,500 Descending Boston Center
09:52PM 42.1500 -72.6586 115° Southeast 289 333 5,200 -1,260 Descending Boston Center
09:53PM 42.1189 -72.5689 148° Southeast 257 296 4,100 -1,320 Descending Boston Center
09:54PM 42.0711 -72.5294 210° Southwest 201 231 2,500 -840 Descending Boston Center
09:55PM 42.0356 -72.5575 227° Southwest 152 175 2,500 -360 Level Boston Center
09:56PM 42.0086 -72.5967 220° Southwest 142 163 1,900 -660 Descending Boston Center
09:57PM 41.9814 -72.6272 220° Southwest 124 143 1,200 -720 Descending Boston Center